createdAt,value
2023-05-21T00:02:12.190Z,161.1
2023-05-21T00:12:11.909Z,161.1
2023-05-21T00:22:11.488Z,161.1
2023-05-21T00:32:11.002Z,138.1
2023-05-21T00:42:10.484Z,138.1
2023-05-21T00:52:10.223Z,138.1
2023-05-21T01:02:09.863Z,138.1
2023-05-21T01:12:09.607Z,138.1
2023-05-21T01:22:08.814Z,138.1
2023-05-21T01:32:09.349Z,138.1
2023-05-21T01:42:08.911Z,138.1
2023-05-21T01:52:08.692Z,138.1
2023-05-21T02:02:08.084Z,138.1
2023-05-21T02:12:08.015Z,138.1
2023-05-21T02:22:07.760Z,138.1
2023-05-21T02:32:07.081Z,138.1
2023-05-21T02:42:07.263Z,138.1
2023-05-21T02:52:06.649Z,138.1
2023-05-21T03:02:06.195Z,0
2023-05-21T03:12:06.286Z,0
2023-05-21T03:22:07.113Z,0
2023-05-21T03:32:06.463Z,0
2023-05-21T03:42:06.994Z,0
2023-05-21T03:52:07.489Z,0
2023-05-21T04:02:07.511Z,0
2023-05-21T04:12:08.311Z,0
2023-05-21T04:22:09.604Z,0
2023-05-21T04:32:10.598Z,0
2023-05-21T04:42:11.579Z,0
2023-05-21T04:52:12.894Z,0
2023-05-21T05:02:13.748Z,0
2023-05-21T05:12:15.224Z,0
2023-05-21T05:22:18.823Z,0
2023-05-21T05:32:27.826Z,0
2023-05-21T05:42:39.614Z,0
2023-05-21T05:52:54.309Z,0
2023-05-21T06:03:09.497Z,0
2023-05-21T06:13:25.213Z,0
2023-05-21T06:23:41.038Z,0
2023-05-21T06:33:57.777Z,0
2023-05-21T06:44:13.327Z,0
2023-05-21T06:54:28.186Z,0
2023-05-21T07:04:42.294Z,0
2023-05-21T07:14:59.408Z,0
2023-05-21T07:25:15.223Z,0
2023-05-21T07:35:32.823Z,0
2023-05-21T07:45:47.857Z,0
2023-05-21T07:56:02.838Z,0
2023-05-21T08:06:17.419Z,0
2023-05-21T08:16:31.378Z,0
2023-05-21T08:26:45.373Z,0
2023-05-21T08:36:57.883Z,0
2023-05-21T08:47:11.849Z,0
2023-05-21T08:57:25.333Z,0
2023-05-21T09:02:10.526Z,0
2023-05-21T09:12:24.855Z,101.8
2023-05-21T09:22:41.143Z,101.8
2023-05-21T09:32:58.030Z,101.8
2023-05-21T09:43:16.550Z,102.5
2023-05-21T09:53:35.023Z,108.2
2023-05-21T10:03:55.167Z,108.1
2023-05-21T10:14:15.311Z,109.9
2023-05-21T10:24:35.514Z,111.8
2023-05-21T10:34:51.436Z,111.8
2023-05-21T10:45:07.254Z,111.8
2023-05-21T10:55:26.256Z,115.9
2023-05-21T11:05:39.504Z,122.4
2023-05-21T11:15:41.105Z,120.5
2023-05-21T11:25:49.926Z,119.7
2023-05-21T11:35:57.335Z,119.7
2023-05-21T11:45:57.508Z,119.7
2023-05-21T11:55:58.385Z,119.7
2023-05-21T12:05:58.149Z,119.7
2023-05-21T12:15:57.402Z,119.7
2023-05-21T12:25:56.737Z,119.7
2023-05-21T12:35:56.296Z,119.7
2023-05-21T12:45:55.715Z,119.7
2023-05-21T12:55:54.806Z,119.7
2023-05-21T13:05:53.938Z,119.7
2023-05-21T13:15:55.410Z,119.7
2023-05-21T13:25:55.291Z,119.7
2023-05-21T13:35:56.194Z,119.7
2023-05-21T13:45:56.509Z,119.7
2023-05-21T13:55:57.253Z,119.7
2023-05-21T14:05:56.496Z,119.7
2023-05-21T14:15:57.574Z,119.7
2023-05-21T14:25:58.100Z,119.7
2023-05-21T14:35:58.724Z,119.7
2023-05-21T14:45:58.184Z,119.7
2023-05-21T14:55:58.362Z,119.7
2023-05-21T15:02:07.109Z,0
2023-05-21T15:12:06.413Z,0
2023-05-21T15:22:06.531Z,0
2023-05-21T15:32:06.141Z,0
2023-05-21T15:42:06.473Z,0
2023-05-21T15:52:06.133Z,0
2023-05-21T16:02:05.850Z,0
2023-05-21T16:12:06.794Z,0
2023-05-21T16:22:09.329Z,0
2023-05-21T16:32:09.188Z,0
2023-05-21T16:42:09.835Z,0
2023-05-21T16:52:10.434Z,0
2023-05-21T17:02:11.449Z,0
2023-05-21T17:12:11.681Z,0
2023-05-21T17:22:11.203Z,0
2023-05-21T17:32:11.325Z,1066.2
2023-05-21T17:42:10.531Z,1066.2
2023-05-21T17:52:10.104Z,1066.2
2023-05-21T18:02:10.353Z,1066.2
2023-05-21T18:12:09.644Z,1290.6
2023-05-21T18:22:10.296Z,1290.6
2023-05-21T18:32:11.862Z,34.1
2023-05-21T18:42:13.762Z,32.7
2023-05-21T18:52:13.576Z,31.8
2023-05-21T19:02:14.615Z,30.7
2023-05-21T19:12:15.779Z,30.1
2023-05-21T19:22:16.661Z,28.9
2023-05-21T19:32:17.704Z,28.8
2023-05-21T19:42:18.717Z,27.4
2023-05-21T19:52:19.855Z,27.1
2023-05-21T20:02:20.833Z,26.5
2023-05-21T20:12:22.409Z,25.6
2023-05-21T20:22:23.994Z,25.7
2023-05-21T20:32:25.620Z,24.7
2023-05-21T20:42:27.189Z,24.5
2023-05-21T20:52:28.796Z,23.7
2023-05-21T21:02:06.655Z,0
2023-05-21T21:12:21.471Z,23.1
2023-05-21T21:22:09.198Z,23.1
2023-05-21T21:32:10.561Z,22.2
2023-05-21T21:42:12.113Z,21.9
2023-05-21T21:52:13.650Z,21.9
2023-05-21T22:02:16.464Z,21.4
2023-05-21T22:12:17.982Z,21.4
2023-05-21T22:22:19.969Z,20.6
2023-05-21T22:32:22.086Z,20.5
2023-05-21T22:42:24.058Z,20.1
2023-05-21T22:52:25.474Z,19.7
2023-05-21T23:02:27.245Z,19.4
2023-05-21T23:12:28.700Z,19.2
2023-05-21T23:22:30.126Z,18.8
2023-05-21T23:32:31.838Z,18.4
2023-05-21T23:42:34.761Z,18.4
2023-05-21T23:52:37.415Z,18.4
